createdAt,value
2023-03-02T00:01:03.518Z,17.33
2023-03-02T00:03:30.544Z,17.10
2023-03-02T00:05:57.807Z,18.97
2023-03-02T00:08:24.401Z,18.00
2023-03-02T00:10:50.998Z,18.33
2023-03-02T00:13:17.663Z,17.40
2023-03-02T00:15:44.278Z,17.07
2023-03-02T00:18:10.861Z,17.80
2023-03-02T00:20:37.511Z,16.60
2023-03-02T00:23:04.127Z,17.80
2023-03-02T00:25:30.684Z,18.77
2023-03-02T00:27:57.319Z,19.03
2023-03-02T00:30:24.309Z,19.93
2023-03-02T00:32:50.890Z,19.50
2023-03-02T00:35:17.696Z,19.03
2023-03-02T00:37:44.386Z,19.33
2023-03-02T00:40:11.473Z,19.20
2023-03-02T00:42:38.186Z,21.13
2023-03-02T00:45:05.914Z,24.03
2023-03-02T00:47:36.368Z,19.73
2023-03-02T00:50:04.655Z,24.53
2023-03-02T00:52:32.001Z,20.60
2023-03-02T00:54:58.859Z,22.53
2023-03-02T00:57:25.583Z,22.57
2023-03-02T00:59:52.192Z,21.63
2023-03-02T01:02:21.527Z,20.97
2023-03-02T01:04:48.392Z,20.83
2023-03-02T01:07:17.702Z,18.93
2023-03-02T01:09:45.227Z,19.77
2023-03-02T01:12:12.255Z,20.57
2023-03-02T01:14:40.458Z,21.13
2023-03-02T01:17:07.426Z,20.77
2023-03-02T01:19:34.258Z,22.63
2023-03-02T01:22:00.931Z,21.13
2023-03-02T01:24:27.923Z,20.73
2023-03-02T01:26:54.523Z,23.63
2023-03-02T01:29:21.221Z,22.40
2023-03-02T01:31:47.966Z,22.43
2023-03-02T01:34:14.680Z,24.43
2023-03-02T01:36:41.486Z,22.03
2023-03-02T01:39:08.154Z,23.37
2023-03-02T01:41:34.939Z,23.27
2023-03-02T01:44:01.550Z,24.03
2023-03-02T01:46:31.484Z,23.03
2023-03-02T01:49:06.493Z,24.20
2023-03-02T01:51:37.595Z,24.30
2023-03-02T01:54:07.818Z,24.53
2023-03-02T01:56:37.591Z,22.70
2023-03-02T01:59:09.278Z,22.43
2023-03-02T02:01:38.188Z,23.40
2023-03-02T02:04:04.933Z,25.70
2023-03-02T02:06:35.456Z,18.87
2023-03-02T02:09:03.700Z,24.17
2023-03-02T02:11:30.805Z,24.33
2023-03-02T02:13:59.542Z,23.57
2023-03-02T02:16:27.192Z,17.97
2023-03-02T02:18:53.823Z,24.00
2023-03-02T02:21:21.416Z,24.53
2023-03-02T02:23:50.605Z,23.93
2023-03-02T02:26:22.948Z,23.97
2023-03-02T02:28:58.145Z,23.20
2023-03-02T02:31:35.839Z,22.50
2023-03-02T02:34:10.435Z,22.27
2023-03-02T02:36:41.082Z,20.97
2023-03-02T02:39:08.860Z,20.50
2023-03-02T02:41:38.461Z,20.20
2023-03-02T02:44:14.400Z,19.77
2023-03-02T02:46:40.972Z,16.77
2023-03-02T02:49:17.841Z,21.87
2023-03-02T02:51:44.468Z,22.33
2023-03-02T02:54:15.166Z,24.30
2023-03-02T02:56:42.310Z,22.27
2023-03-02T02:59:48.124Z,18.43
2023-03-02T03:02:25.053Z,23.50
2023-03-02T03:04:51.987Z,21.77
2023-03-02T03:07:21.524Z,21.83
2023-03-02T03:10:02.056Z,20.50
2023-03-02T03:12:29.356Z,21.50
2023-03-02T03:14:56.067Z,22.07
2023-03-02T03:17:36.629Z,14.02
2023-03-02T03:20:10.853Z,20.90
2023-03-02T03:22:38.683Z,23.20
2023-03-02T03:25:06.117Z,19.47
2023-03-02T03:27:32.737Z,21.90
2023-03-02T03:30:01.903Z,22.23
2023-03-02T03:32:28.661Z,21.43
2023-03-02T03:34:55.304Z,21.40
2023-03-02T03:37:21.919Z,21.47
2023-03-02T03:39:48.569Z,21.33
2023-03-02T03:42:15.221Z,22.50
2023-03-02T03:44:41.870Z,21.70
2023-03-02T03:47:08.395Z,20.90
2023-03-02T03:49:35.450Z,19.93
2023-03-02T03:52:02.378Z,21.30
2023-03-02T03:54:28.992Z,21.50
2023-03-02T03:56:55.600Z,20.77
2023-03-02T03:59:24.312Z,21.70
2023-03-02T04:01:56.670Z,20.27
2023-03-02T04:04:32.555Z,20.73
2023-03-02T04:06:59.786Z,21.10
2023-03-02T04:09:27.269Z,20.87
2023-03-02T04:11:55.632Z,20.47
2023-03-02T04:14:23.778Z,22.13
2023-03-02T04:16:50.554Z,22.57
2023-03-02T04:19:17.766Z,20.37
2023-03-02T04:21:47.278Z,16.07
2023-03-02T04:24:14.904Z,17.20
2023-03-02T04:26:42.841Z,20.17
2023-03-02T04:29:10.459Z,19.63
2023-03-02T04:31:37.450Z,17.47
2023-03-02T04:34:04.602Z,20.00
2023-03-02T04:36:36.139Z,21.30
2023-03-02T04:39:04.220Z,21.03
2023-03-02T04:41:30.879Z,23.60
2023-03-02T04:43:57.651Z,15.53
2023-03-02T04:46:25.866Z,22.63
2023-03-02T04:48:52.528Z,20.40
2023-03-02T04:51:25.120Z,24.37
2023-03-02T04:53:57.122Z,21.70
2023-03-02T04:56:23.732Z,24.97
2023-03-02T04:58:50.504Z,20.37
2023-03-02T05:01:18.371Z,21.80
2023-03-02T05:03:45.534Z,19.87
2023-03-02T05:06:12.166Z,24.60
2023-03-02T05:08:38.839Z,21.60
2023-03-02T05:11:06.593Z,22.20
2023-03-02T05:13:33.487Z,22.27
2023-03-02T05:16:00.732Z,19.90
2023-03-02T05:18:27.326Z,19.33
2023-03-02T05:20:54.408Z,20.47
2023-03-02T05:23:25.884Z,21.87
2023-03-02T05:25:53.931Z,17.20
2023-03-02T05:28:21.347Z,19.43
2023-03-02T05:30:48.381Z,21.03
2023-03-02T05:33:15.846Z,20.27
2023-03-02T05:35:43.116Z,19.40
2023-03-02T05:38:10.061Z,18.60
2023-03-02T05:40:36.696Z,19.30
2023-03-02T05:43:03.631Z,18.70
2023-03-02T05:45:33.325Z,19.63
2023-03-02T05:47:59.922Z,18.50
2023-03-02T05:50:26.552Z,18.67
2023-03-02T05:52:53.260Z,17.97
2023-03-02T05:55:20.311Z,16.50
2023-03-02T05:57:49.430Z,19.23
2023-03-02T06:00:17.329Z,19.80
2023-03-02T06:02:44.219Z,16.97
2023-03-02T06:05:16.634Z,11.27
2023-03-02T06:07:43.812Z,19.37
2023-03-02T06:10:12.147Z,18.70
2023-03-02T06:12:39.228Z,15.20
2023-03-02T06:15:06.895Z,18.40
2023-03-02T06:17:33.848Z,17.40
2023-03-02T06:20:00.488Z,19.27
2023-03-02T06:22:27.117Z,16.77
2023-03-02T06:24:55.291Z,16.53
2023-03-02T06:27:21.893Z,21.30
2023-03-02T06:29:49.162Z,20.83
2023-03-02T06:32:16.043Z,20.60
2023-03-02T06:34:42.823Z,18.20
2023-03-02T06:37:09.515Z,18.87
2023-03-02T06:39:36.101Z,19.93
2023-03-02T06:42:02.692Z,18.80
2023-03-02T06:44:29.398Z,21.73
2023-03-02T06:46:55.945Z,15.07
2023-03-02T06:49:22.482Z,17.67
2023-03-02T06:51:49.097Z,18.90
2023-03-02T06:54:15.665Z,23.00
2023-03-02T06:56:42.294Z,21.37
2023-03-02T06:59:08.942Z,21.77
2023-03-02T07:01:36.380Z,19.60
2023-03-02T07:04:03.501Z,19.70
2023-03-02T07:06:30.438Z,12.67
2023-03-02T07:08:57.045Z,8.17
2023-03-02T07:11:23.953Z,13.97
2023-03-02T07:13:51.119Z,14.90
2023-03-02T07:16:17.841Z,14.67
2023-03-02T07:18:44.440Z,13.93
2023-03-02T07:21:11.005Z,14.87
2023-03-02T07:23:37.680Z,16.47
2023-03-02T07:26:08.511Z,12.63
2023-03-02T07:28:40.196Z,17.40
2023-03-02T07:31:07.388Z,15.60
2023-03-02T07:33:34.472Z,17.50
2023-03-02T07:36:01.464Z,16.93
2023-03-02T07:38:28.547Z,15.30
2023-03-02T07:40:55.427Z,17.77
2023-03-02T07:43:24.152Z,16.10
2023-03-02T07:45:50.839Z,23.40
2023-03-02T07:48:17.674Z,17.93
2023-03-02T07:50:44.296Z,18.63
2023-03-02T07:53:10.813Z,14.90
2023-03-02T07:55:40.882Z,12.40
2023-03-02T07:58:07.580Z,16.20
2023-03-02T08:00:34.393Z,16.50
2023-03-02T08:03:01.010Z,15.93
2023-03-02T08:05:27.633Z,17.60
2023-03-02T08:07:54.258Z,17.03
2023-03-02T08:10:20.914Z,17.67
2023-03-02T08:12:47.506Z,18.47
2023-03-02T08:15:14.241Z,16.67
2023-03-02T08:17:40.841Z,16.57
2023-03-02T08:20:08.292Z,17.73
2023-03-02T08:22:34.984Z,16.30
2023-03-02T08:25:01.574Z,16.03
2023-03-02T08:27:28.206Z,17.13
2023-03-02T08:29:54.836Z,19.47
2023-03-02T08:32:21.473Z,18.40
2023-03-02T08:34:51.701Z,15.60
2023-03-02T08:37:21.357Z,15.47
2023-03-02T08:39:48.553Z,16.03
2023-03-02T08:42:15.309Z,14.57
2023-03-02T08:44:41.974Z,15.93
2023-03-02T08:47:08.571Z,15.57
2023-03-02T08:49:36.838Z,15.93
2023-03-02T08:52:03.918Z,16.73
2023-03-02T08:54:30.932Z,15.93
2023-03-02T08:56:57.576Z,15.57
2023-03-02T08:59:24.311Z,13.27
2023-03-02T09:01:50.957Z,14.63
2023-03-02T09:04:17.844Z,13.30
2023-03-02T09:06:45.357Z,15.73
2023-03-02T09:09:13.634Z,14.10
2023-03-02T09:11:42.355Z,15.20
2023-03-02T09:14:09.446Z,13.63
2023-03-02T09:16:36.137Z,8.93
2023-03-02T09:19:02.977Z,15.93
2023-03-02T09:21:29.628Z,11.23
2023-03-02T09:23:58.163Z,16.10
2023-03-02T09:26:26.382Z,12.47
2023-03-02T09:28:53.185Z,13.97
2023-03-02T09:31:20.037Z,15.13
2023-03-02T09:33:46.673Z,12.73
2023-03-02T09:36:19.863Z,16.10
2023-03-02T09:38:46.603Z,15.93
2023-03-02T09:41:19.576Z,13.87
2023-03-02T09:44:30.710Z,16.33
2023-03-02T09:47:02.574Z,16.13
2023-03-02T09:49:41.206Z,15.63
2023-03-02T09:52:44.494Z,17.07
2023-03-02T09:55:24.103Z,18.57
2023-03-02T09:57:51.091Z,15.80
2023-03-02T10:00:27.674Z,14.63
2023-03-02T10:03:02.454Z,16.57
2023-03-02T10:05:41.248Z,10.90
2023-03-02T10:08:23.453Z,13.87
2023-03-02T10:11:25.478Z,13.70
2023-03-02T10:13:58.800Z,13.40
2023-03-02T10:16:48.609Z,15.30
2023-03-02T10:19:20.343Z,11.63
2023-03-02T10:21:49.774Z,13.87
2023-03-02T10:24:19.473Z,12.97
2023-03-02T10:27:16.642Z,14.10
2023-03-02T10:29:50.770Z,12.63
2023-03-02T10:32:25.930Z,12.20
2023-03-02T10:34:54.035Z,10.87
2023-03-02T10:37:25.303Z,10.20
2023-03-02T10:39:52.895Z,13.17
2023-03-02T10:42:30.310Z,13.43
2023-03-02T10:45:22.164Z,12.77
2023-03-02T10:48:09.838Z,11.40
2023-03-02T10:50:36.939Z,13.10
2023-03-02T10:53:06.888Z,11.10
2023-03-02T10:55:34.626Z,12.10
2023-03-02T10:58:15.793Z,11.60
2023-03-02T11:00:42.338Z,12.03
2023-03-02T11:03:21.278Z,11.70
2023-03-02T11:05:47.956Z,15.60
2023-03-02T11:08:26.717Z,10.67
2023-03-02T11:11:00.955Z,11.47
2023-03-02T11:13:35.327Z,11.80
2023-03-02T11:16:20.944Z,11.37
2023-03-02T11:19:04.189Z,9.83
2023-03-02T11:21:36.861Z,10.60
2023-03-02T11:24:10.950Z,10.70
2023-03-02T11:26:55.529Z,10.30
2023-03-02T11:29:53.141Z,7.93
2023-03-02T11:32:34.195Z,9.80
2023-03-02T11:35:05.364Z,9.93
2023-03-02T11:37:40.621Z,10.33
2023-03-02T11:40:23.101Z,12.83
2023-03-02T11:42:50.510Z,11.67
2023-03-02T11:45:21.773Z,11.90
2023-03-02T11:48:03.469Z,9.17
2023-03-02T11:50:34.794Z,13.27
2023-03-02T11:53:04.713Z,10.13
2023-03-02T11:55:35.500Z,10.97
2023-03-02T11:58:03.680Z,9.97
2023-03-02T12:00:37.312Z,10.83
2023-03-02T12:03:19.368Z,11.97
2023-03-02T12:05:58.484Z,23.33
2023-03-02T12:08:25.008Z,13.93
2023-03-02T12:11:28.785Z,17.00
2023-03-02T12:13:55.339Z,10.60
2023-03-02T12:16:21.909Z,11.10
2023-03-02T12:18:50.424Z,12.07
2023-03-02T12:21:22.945Z,16.37
2023-03-02T12:23:49.462Z,12.90
2023-03-02T12:26:22.129Z,16.20
2023-03-02T12:29:07.605Z,11.93
2023-03-02T12:31:43.509Z,9.07
2023-03-02T12:34:32.357Z,10.47
2023-03-02T12:37:04.816Z,9.90
2023-03-02T12:39:44.994Z,10.43
2023-03-02T12:42:32.856Z,10.43
2023-03-02T12:45:34.671Z,9.83
2023-03-02T12:48:30.830Z,11.23
2023-03-02T12:51:02.645Z,11.77
2023-03-02T12:53:29.769Z,10.37
2023-03-02T12:55:56.514Z,14.30
2023-03-02T12:58:28.358Z,12.77
2023-03-02T13:01:00.826Z,13.77
2023-03-02T13:03:29.983Z,15.30
2023-03-02T13:06:05.561Z,13.93
2023-03-02T13:08:32.363Z,14.30
2023-03-02T13:11:01.492Z,13.77
2023-03-02T13:13:38.888Z,13.57
2023-03-02T13:16:25.964Z,16.53
2023-03-02T13:18:58.515Z,13.70
2023-03-02T13:21:40.089Z,13.07
2023-03-02T13:24:26.363Z,14.27
2023-03-02T13:26:58.448Z,15.87
2023-03-02T13:29:31.068Z,14.53
2023-03-02T13:32:08.027Z,16.33
2023-03-02T13:34:35.516Z,11.93
2023-03-02T13:37:02.154Z,14.97
2023-03-02T13:39:31.601Z,18.47
2023-03-02T13:42:02.832Z,9.90
2023-03-02T13:44:34.521Z,16.27
2023-03-02T13:47:01.968Z,15.30
2023-03-02T13:49:35.819Z,18.10
2023-03-02T13:52:29.697Z,17.67
2023-03-02T13:54:56.274Z,19.43
2023-03-02T13:57:30.877Z,17.90
2023-03-02T13:59:58.760Z,18.53
2023-03-02T14:02:27.683Z,17.93
2023-03-02T14:04:54.845Z,18.77
2023-03-02T14:07:21.588Z,18.30
2023-03-02T14:09:49.049Z,19.13
2023-03-02T14:12:31.024Z,15.83
2023-03-02T14:15:00.442Z,17.90
2023-03-02T14:17:27.413Z,17.97
2023-03-02T14:19:55.304Z,20.77
2023-03-02T14:22:23.693Z,20.90
2023-03-02T14:24:50.363Z,18.97
2023-03-02T14:27:17.896Z,16.07
2023-03-02T14:29:45.589Z,17.97
2023-03-02T14:32:13.819Z,15.37
2023-03-02T14:34:41.080Z,20.27
2023-03-02T14:37:11.195Z,20.30
2023-03-02T14:39:39.586Z,16.27
2023-03-02T14:42:10.756Z,19.27
2023-03-02T14:44:37.385Z,19.47
2023-03-02T14:47:04.023Z,22.03
2023-03-02T14:49:30.711Z,21.37
2023-03-02T14:52:02.187Z,22.17
2023-03-02T14:54:53.203Z,17.93
2023-03-02T14:57:27.580Z,22.30
2023-03-02T14:59:55.510Z,17.57
2023-03-02T15:02:26.048Z,21.60
2023-03-02T15:04:56.543Z,22.77
2023-03-02T15:07:24.299Z,22.17
2023-03-02T15:09:50.891Z,19.70
2023-03-02T15:12:17.459Z,23.10
2023-03-02T15:14:44.136Z,21.00
2023-03-02T15:17:10.938Z,21.73
2023-03-02T15:19:37.497Z,22.67
2023-03-02T15:22:04.551Z,22.57
2023-03-02T15:24:33.246Z,21.40
2023-03-02T15:27:00.194Z,23.97
2023-03-02T15:29:27.036Z,21.33
2023-03-02T15:31:53.855Z,24.50
2023-03-02T15:34:20.666Z,23.47
2023-03-02T15:36:47.294Z,25.50
2023-03-02T15:39:14.582Z,26.90
2023-03-02T15:41:43.974Z,27.03
2023-03-02T15:44:24.589Z,27.93
2023-03-02T15:46:54.660Z,27.93
2023-03-02T15:49:24.512Z,25.20
2023-03-02T15:51:52.157Z,23.80
2023-03-02T15:54:18.966Z,24.20
2023-03-02T15:56:47.939Z,28.50
2023-03-02T15:59:15.512Z,24.50
2023-03-02T16:01:42.132Z,24.03
2023-03-02T16:04:08.711Z,26.60
2023-03-02T16:06:35.368Z,25.30
2023-03-02T16:09:02.208Z,22.57
2023-03-02T16:11:28.870Z,24.53
2023-03-02T16:13:55.417Z,25.23
2023-03-02T16:16:22.188Z,21.93
2023-03-02T16:19:01.551Z,24.63
2023-03-02T16:21:28.934Z,24.20
2023-03-02T16:24:09.432Z,26.40
2023-03-02T16:26:38.188Z,23.60
2023-03-02T16:29:08.116Z,26.77
2023-03-02T16:31:37.792Z,29.60
2023-03-02T16:34:09.075Z,25.53
2023-03-02T16:36:37.467Z,29.93
2023-03-02T16:39:05.488Z,26.83
2023-03-02T16:41:32.223Z,26.67
2023-03-02T16:43:59.147Z,29.10
2023-03-02T16:46:29.221Z,26.60
2023-03-02T16:48:56.919Z,25.83
2023-03-02T16:51:24.246Z,24.97
2023-03-02T16:53:51.908Z,24.30
2023-03-02T16:56:18.556Z,24.33
2023-03-02T16:58:45.280Z,26.27
2023-03-02T17:01:15.284Z,27.33
2023-03-02T17:03:42.735Z,26.27
2023-03-02T17:06:10.985Z,29.20
2023-03-02T17:08:38.188Z,74.23
2023-03-02T17:11:05.075Z,103.37
2023-03-02T17:13:31.865Z,59.87
2023-03-02T17:15:58.756Z,39.70
2023-03-02T17:18:27.715Z,39.40
2023-03-02T17:20:55.797Z,54.27
2023-03-02T17:23:22.550Z,47.50
2023-03-02T17:25:49.236Z,41.73
2023-03-02T17:28:16.819Z,40.97
2023-03-02T17:30:44.414Z,35.40
2023-03-02T17:33:11.715Z,35.70
2023-03-02T17:35:38.495Z,38.23
2023-03-02T17:38:05.406Z,41.10
2023-03-02T17:40:32.388Z,35.30
2023-03-02T17:42:58.996Z,37.37
2023-03-02T17:45:27.332Z,34.33
2023-03-02T17:47:55.813Z,31.40
2023-03-02T17:50:23.036Z,31.13
2023-03-02T17:52:49.753Z,29.97
2023-03-02T17:55:16.644Z,33.67
2023-03-02T17:57:43.237Z,40.10
2023-03-02T18:00:13.358Z,39.00
2023-03-02T18:02:39.986Z,39.73
2023-03-02T18:05:08.903Z,48.73
2023-03-02T18:07:36.021Z,54.80
2023-03-02T18:10:03.104Z,31.97
2023-03-02T18:12:29.779Z,27.63
2023-03-02T18:14:56.359Z,27.20
2023-03-02T18:17:22.990Z,25.83
2023-03-02T18:19:49.645Z,29.43
2023-03-02T18:22:16.279Z,27.70
2023-03-02T18:24:43.129Z,29.93
2023-03-02T18:27:09.827Z,32.20
2023-03-02T18:29:36.455Z,123.80
2023-03-02T18:32:03.298Z,38.97
2023-03-02T18:34:29.916Z,49.80
2023-03-02T18:36:56.490Z,36.83
2023-03-02T18:39:23.157Z,31.37
2023-03-02T18:41:49.806Z,31.87
2023-03-02T18:44:16.630Z,30.30
2023-03-02T18:46:43.373Z,31.87
2023-03-02T18:49:10.050Z,34.67
2023-03-02T18:51:36.639Z,29.60
2023-03-02T18:54:03.472Z,29.87
2023-03-02T18:56:30.082Z,30.83
2023-03-02T18:58:56.809Z,31.50
2023-03-02T19:01:23.873Z,30.00
2023-03-02T19:03:50.552Z,28.47
2023-03-02T19:06:17.236Z,26.97
2023-03-02T19:08:43.951Z,28.03
2023-03-02T19:11:11.971Z,30.00
2023-03-02T19:13:38.654Z,30.13
2023-03-02T19:16:05.955Z,29.27
2023-03-02T19:18:34.385Z,31.97
2023-03-02T19:21:01.481Z,28.30
2023-03-02T19:23:28.141Z,31.00
2023-03-02T19:25:54.701Z,31.57
2023-03-02T19:28:21.806Z,38.03
2023-03-02T19:30:50.574Z,27.90
2023-03-02T19:33:33.474Z,28.39
2023-03-02T19:36:00.206Z,34.37
2023-03-02T19:38:29.376Z,30.70
2023-03-02T19:40:57.855Z,31.73
2023-03-02T19:43:25.689Z,33.20
2023-03-02T19:45:52.813Z,36.37
2023-03-02T19:48:19.954Z,34.07
2023-03-02T19:50:46.698Z,31.07
2023-03-02T19:53:13.529Z,33.77
2023-03-02T19:55:42.623Z,31.73
2023-03-02T19:58:11.097Z,29.83
2023-03-02T20:00:38.871Z,32.80
2023-03-02T20:03:06.218Z,31.40
2023-03-02T20:05:32.911Z,33.13
2023-03-02T20:07:59.555Z,33.50
2023-03-02T20:10:42.918Z,32.87
2023-03-02T20:13:09.673Z,34.80
2023-03-02T20:15:40.057Z,36.03
2023-03-02T20:18:08.573Z,40.63
2023-03-02T20:20:35.259Z,43.27
2023-03-02T20:23:04.955Z,41.20
2023-03-02T20:25:31.685Z,44.30
2023-03-02T20:27:58.484Z,44.80
2023-03-02T20:30:34.003Z,42.20
2023-03-02T20:33:01.964Z,37.30
2023-03-02T20:35:30.721Z,32.90
2023-03-02T20:37:59.033Z,31.77
2023-03-02T20:40:26.375Z,32.47
2023-03-02T20:42:53.498Z,34.17
2023-03-02T20:45:20.654Z,33.43
2023-03-02T20:47:47.636Z,32.53
2023-03-02T20:50:17.383Z,36.47
2023-03-02T20:52:44.000Z,32.53
2023-03-02T20:55:11.880Z,34.33
2023-03-02T20:57:38.716Z,44.40
2023-03-02T21:00:08.221Z,32.60
2023-03-02T21:02:34.849Z,30.97
2023-03-02T21:05:01.714Z,29.70
2023-03-02T21:07:28.379Z,30.80
2023-03-02T21:09:55.028Z,30.17
2023-03-02T21:12:21.660Z,30.50
2023-03-02T21:14:48.375Z,29.13
2023-03-02T21:17:15.069Z,28.97
2023-03-02T21:19:41.775Z,32.47
2023-03-02T21:22:08.401Z,34.83
2023-03-02T21:24:35.021Z,31.80
2023-03-02T21:27:02.601Z,28.83
2023-03-02T21:29:29.760Z,29.07
2023-03-02T21:31:56.566Z,28.40
2023-03-02T21:34:23.282Z,29.57
2023-03-02T21:36:53.679Z,27.57
2023-03-02T21:39:23.663Z,28.01
2023-03-02T21:41:51.425Z,27.20
2023-03-02T21:44:18.663Z,30.23
2023-03-02T21:46:45.569Z,30.73
2023-03-02T21:49:18.672Z,30.27
2023-03-02T21:51:45.540Z,29.30
2023-03-02T21:54:12.791Z,28.30
2023-03-02T21:56:39.527Z,30.57
2023-03-02T21:59:06.300Z,30.40
2023-03-02T22:01:33.058Z,30.53
2023-03-02T22:04:00.695Z,30.47
2023-03-02T22:06:30.264Z,30.33
2023-03-02T22:08:57.724Z,34.07
2023-03-02T22:11:29.594Z,35.90
2023-03-02T22:14:01.866Z,30.90
2023-03-02T22:16:33.561Z,71.30
2023-03-02T22:19:00.567Z,39.87
2023-03-02T22:21:37.885Z,33.30
2023-03-02T22:24:18.501Z,36.63
2023-03-02T22:26:47.132Z,33.30
2023-03-02T22:29:25.296Z,33.10
2023-03-02T22:31:54.345Z,36.17
2023-03-02T22:34:30.147Z,33.63
2023-03-02T22:37:00.013Z,30.20
2023-03-02T22:39:33.100Z,31.90
2023-03-02T22:42:06.856Z,31.83
2023-03-02T22:44:34.267Z,34.03
2023-03-02T22:47:01.561Z,32.77
2023-03-02T22:49:29.953Z,32.20
2023-03-02T22:52:01.358Z,29.70
2023-03-02T22:54:33.276Z,30.83
2023-03-02T22:57:00.017Z,30.20
2023-03-02T22:59:28.312Z,30.33
2023-03-02T23:02:00.047Z,30.03
2023-03-02T23:04:37.201Z,34.63
2023-03-02T23:07:17.761Z,38.20
2023-03-02T23:09:44.380Z,37.53
2023-03-02T23:12:22.226Z,31.77
2023-03-02T23:14:51.177Z,27.67
2023-03-02T23:17:32.070Z,28.47
2023-03-02T23:19:58.693Z,28.60
2023-03-02T23:22:28.539Z,29.73
2023-03-02T23:24:55.960Z,28.37
2023-03-02T23:27:24.301Z,29.73
2023-03-02T23:29:52.917Z,29.27
2023-03-02T23:32:19.894Z,31.13
2023-03-02T23:34:46.666Z,29.17
2023-03-02T23:37:13.234Z,31.43
2023-03-02T23:39:39.794Z,30.70
2023-03-02T23:42:09.436Z,30.10
2023-03-02T23:44:36.021Z,29.00
2023-03-02T23:47:03.451Z,31.00
2023-03-02T23:49:30.087Z,28.07
2023-03-02T23:51:56.726Z,29.33
2023-03-02T23:54:23.407Z,31.40
2023-03-02T23:56:49.973Z,31.57
2023-03-02T23:59:16.754Z,30.73
